Airfield :







YOU CAN JOIN US ON...

 
LOGIN :

Register | Disclaimer

   EN    FR    IT 

 









Legend :    VFR   Marginal VFR   IFR   Intensive IFR   Very Intensive IFR
Visi :
Ceiling :
>= 8 km
>= 3000ft
5 to 8 km
1000 to 3000 ft
1500m to 5 km
500 to 1000 ft
800 to 1500m
200 to 500 ft
< 800m
< 200 ft
Symbols :   Thunderstorms  Fog  Heavy snow  Heavy precipitations  Wind > 20 kt






- Airport Elevation : 489 ft


KHUL - Houlton International

CURRENT METAR :
  • 262010Z AUTO 00000KT 1SM BR VV005 02/01 A2945 RMK AO2 T00170006

EXPIRED METARs :
  • 261953Z AUTO 00000KT 1SM BR OVC004 02/01 A2945 RMK AO2 SLP980 T00170006
  • 261908Z AUTO 33003KT 1 1/4SM BR OVC003 02/00 A2946 RMK AO2 T00170000
  • 261853Z AUTO 00000KT 1 1/2SM BR OVC004 02/00 A2947 RMK AO2 SLP984 T00170000
  • 261839Z AUTO 00000KT 1 1/2SM BR OVC004 02/01 A2947 RMK AO2 T00170006
  • 261829Z AUTO 00000KT 1 1/4SM BR OVC004 02/01 A2947 RMK AO2 T00170006
  • 261809Z AUTO 00000KT 1 3/4SM BR OVC004 02/00 A2948 RMK AO2 T00170000
  • 261753Z AUTO VRB04KT 2 1/2SM BR OVC005 02/00 A2948 RMK AO2 SLP990 60005 I6004 T00170000 10017 20000 56050

TAF KHUL
Valid from the 26 at 18:00 until the 27 at 18:00 UTC


261727Z 2618/2718 10006KT 1SM -RA BR OVC005
FM270000 23004KT 2SM -RA OVC007
FM270300 24004KT 3SM BR VCSH OVC013
FM270900 24005KT P6SM VCSH BKN030



MET'MAP, your aeronautical weather chart ! - Copyright ORBIFLY December 2007 - Disclaimer

ORBIFLY MET'MAP TEAM :

Programming & Development : Alexandra Zaïnal
Concept & original design : Baudouin d'Aumeries
Assistance for programming : Marc-Olivier Méhu
Technical & hardware support : Manuel Goepfert

Contact : metmap@orbifly.com




SOURCES & CREDITS :

   NOAA